Time;durP1;ratioP1;P1;durP2;ratioP2;P2;SDS_P1;SDS_P2;PMS_P1;PMS_P2;Temp;Humidity;BMP_temperature;BMP_pressure;BME280_temperature;BME280_humidity;BME280_pressure;Samples;Min_cycle;Max_cycle;Signal;HPM_P1;HPM_P2
2021/12/19 00:01:31;;;;;;;;;46.25;34.50;;;;;6.52;91.42;102586.59;5040206;28;45588;-62
2021/12/19 00:04:16;;;;;;;;;45.75;34.75;;;;;6.53;91.99;102585.72;5039668;28;45482;-62
2021/12/19 00:09:27;;;;;;;;;36.25;32.00;;;;;6.54;91.89;102583.97;5039942;28;45394;-66
2021/12/19 00:11:53;;;;;;;;;45.00;35.50;;;;;6.54;91.05;102578.75;5038566;28;45394;-67
2021/12/19 00:14:20;;;;;;;;;32.50;28.75;;;;;6.54;92.08;102573.50;5040178;28;45237;-66
2021/12/19 00:16:46;;;;;;;;;48.25;35.75;;;;;6.51;91.33;102563.91;5038347;28;45293;-66
2021/12/19 00:19:11;;;;;;;;;46.00;33.00;;;;;6.53;91.51;102563.91;5039020;28;45445;-66
2021/12/19 00:21:39;;;;;;;;;45.00;35.75;;;;;6.53;91.79;102564.81;5039263;28;45444;-68
2021/12/19 00:24:05;;;;;;;;;43.25;33.50;;;;;6.55;91.84;102568.31;5022372;28;45370;-67
2021/12/19 00:26:31;;;;;;;;;50.00;36.75;;;;;6.50;92.21;102553.44;5040706;28;45182;-65
2021/12/19 00:28:56;;;;;;;;;46.50;34.00;;;;;6.56;91.46;102556.97;5040900;28;45244;-67
2021/12/19 00:31:21;;;;;;;;;43.25;35.75;;;;;6.58;91.17;102551.75;5038481;28;45889;-67
2021/12/19 00:33:47;;;;;;;;;57.25;41.00;;;;;6.59;91.81;102556.13;5020637;28;45332;-67
2021/12/19 00:36:13;;;;;;;;;56.25;39.75;;;;;6.54;91.40;102545.63;5022328;28;45387;-66
2021/12/19 00:38:38;;;;;;;;;46.50;34.25;;;;;6.46;91.58;102543.81;5038183;28;45339;-66
2021/12/19 00:41:05;;;;;;;;;49.75;40.50;;;;;6.45;91.54;102548.19;5037927;28;46293;-66
2021/12/19 00:43:44;;;;;;;;;46.50;38.50;;;;;6.39;91.47;102542.91;5037733;28;45357;-66
2021/12/19 00:46:11;;;;;;;;;44.75;33.00;;;;;6.37;92.76;102544.63;5037718;28;45292;-66
2021/12/19 00:48:44;;;;;;;;;42.25;32.25;;;;;6.38;92.98;102547.22;5042330;28;45430;-65
2021/12/19 00:51:14;;;;;;;;;41.75;31.75;;;;;6.36;92.79;102542.84;5043651;28;46070;-67
2021/12/19 00:53:41;;;;;;;;;42.50;32.00;;;;;6.39;92.81;102541.13;5036217;28;45368;-65
2021/12/19 00:56:06;;;;;;;;;32.75;27.25;;;;;6.40;92.60;102535.06;5037972;28;45362;-62
2021/12/19 00:58:32;;;;;;;;;36.00;28.75;;;;;6.46;92.52;102538.56;5041603;28;45556;-65
2021/12/19 01:00:58;;;;;;;;;42.00;31.00;;;;;6.52;91.90;102542.13;5038550;28;46135;-67
2021/12/19 01:03:23;;;;;;;;;40.00;31.00;;;;;6.53;92.26;102535.16;5037517;28;45473;-66
2021/12/19 01:05:49;;;;;;;;;41.25;33.00;;;;;6.52;91.83;102528.16;5037545;28;45322;-65
2021/12/19 01:08:14;;;;;;;;;37.00;31.50;;;;;6.54;91.97;102536.91;5037585;28;45272;-66
2021/12/19 01:10:43;;;;;;;;;45.50;35.00;;;;;6.51;92.07;102532.53;5022605;28;47050;-65
2021/12/19 01:13:08;;;;;;;;;46.25;35.25;;;;;6.42;92.66;102525.47;5036662;28;45214;-66
2021/12/19 01:15:34;;;;;;;;;39.50;33.50;;;;;6.40;92.00;102528.97;5044204;28;45225;-65
2021/12/19 01:18:00;;;;;;;;;41.75;32.75;;;;;6.30;93.36;102528.00;5042548;28;45216;-65
2021/12/19 01:20:28;;;;;;;;;42.75;31.75;;;;;6.34;92.45;102539.34;5018767;28;47386;-64
2021/12/19 01:22:54;;;;;;;;;31.00;25.75;;;;;6.28;93.42;102530.56;5037330;28;45344;-65
2021/12/19 01:25:20;;;;;;;;;26.50;22.75;;;;;6.17;93.51;102531.34;5037001;28;45326;-66
2021/12/19 01:27:46;;;;;;;;;29.00;26.50;;;;;6.16;93.77;102527.00;5019008;28;45241;-66
2021/12/19 01:30:12;;;;;;;;;36.75;28.75;;;;;6.16;93.12;102533.06;5036580;28;46110;-64
2021/12/19 01:32:38;;;;;;;;;34.00;27.00;;;;;6.13;93.44;102530.44;5036761;28;45410;-66
2021/12/19 01:35:06;;;;;;;;;35.50;29.50;;;;;6.04;93.78;102520.78;5036678;28;45342;-65
2021/12/19 01:37:31;;;;;;;;;29.75;25.75;;;;;6.04;94.91;102523.41;5018741;28;45654;-66
2021/12/19 01:39:57;;;;;;;;;32.25;24.00;;;;;6.02;93.77;102519.00;5035527;28;45417;-66
2021/12/19 01:42:30;;;;;;;;;30.75;25.00;;;;;6.08;94.86;102526.91;5036664;28;45388;-67
2021/12/19 01:44:56;;;;;;;;;33.25;26.50;;;;;6.05;94.67;102534.72;5036376;28;45366;-65
2021/12/19 01:47:21;;;;;;;;;36.25;29.50;;;;;5.99;95.07;102523.31;5037642;28;45373;-65
2021/12/19 01:49:46;;;;;;;;;32.50;25.25;;;;;5.97;95.09;102519.81;5039141;28;46183;-66
2021/12/19 01:52:12;;;;;;;;;35.50;26.75;;;;;5.94;95.90;102518.91;5039983;28;45275;-67
2021/12/19 01:54:37;;;;;;;;;27.25;27.00;;;;;5.93;95.69;102518.03;5040382;28;45458;-66
2021/12/19 01:57:03;;;;;;;;;36.50;28.50;;;;;5.86;96.25;102513.59;5038350;28;45442;-65
2021/12/19 01:59:28;;;;;;;;;31.25;20.75;;;;;5.81;95.90;102513.53;5018217;28;46667;-66
2021/12/19 02:01:56;;;;;;;;;30.25;20.75;;;;;5.78;95.81;102510.88;5036068;28;45342;-65
2021/12/19 02:04:22;;;;;;;;;36.25;29.00;;;;;5.80;96.33;102514.38;5035037;28;45236;-67
2021/12/19 02:06:48;;;;;;;;;27.25;23.25;;;;;5.77;96.60;102514.34;5050182;28;45230;-67
2021/12/19 02:09:14;;;;;;;;;29.25;27.25;;;;;5.73;96.85;102506.50;5037169;28;46261;-66
2021/12/19 02:11:41;;;;;;;;;28.75;24.50;;;;;5.74;96.64;102505.63;5038963;28;45766;-66
2021/12/19 02:14:09;;;;;;;;;31.50;23.25;;;;;5.71;97.38;102490.78;5039160;28;45406;-66
2021/12/19 02:16:36;;;;;;;;;38.00;28.50;;;;;5.75;97.29;102505.63;5036646;28;45410;-66
2021/12/19 02:19:03;;;;;;;;;34.25;26.75;;;;;5.73;97.35;102501.25;5035900;28;45287;-65
2021/12/19 02:21:29;;;;;;;;;32.00;26.00;;;;;5.72;97.53;102491.69;5036158;28;45251;-66
2021/12/19 02:23:59;;;;;;;;;27.75;24.25;;;;;5.72;97.33;102486.47;5036031;28;45366;-65
2021/12/19 02:26:25;;;;;;;;;37.75;24.75;;;;;5.71;97.77;102490.78;5036403;28;45531;-66
2021/12/19 02:28:50;;;;;;;;;29.00;22.75;;;;;5.73;97.60;102493.44;5018861;28;47201;-65
2021/12/19 02:31:16;;;;;;;;;32.25;27.00;;;;;5.70;97.86;102487.31;5040280;28;45319;-65
2021/12/19 02:33:52;;;;;;;;;32.50;27.25;;;;;5.70;97.90;102487.31;5040756;28;45293;-63
2021/12/19 02:36:26;;;;;;;;;33.00;26.50;;;;;5.68;97.72;102481.19;5037898;28;45246;-65
2021/12/19 02:49:48;;;;;;;;;34.00;27.75;;;;;5.76;97.06;102477.78;5042186;28;45771;-67
2021/12/19 02:52:16;;;;;;;;;26.50;23.25;;;;;5.76;97.42;102472.56;5045876;28;45411;-67
2021/12/19 02:54:42;;;;;;;;;38.25;28.25;;;;;5.75;97.34;102466.47;5040217;28;45403;-67
2021/12/19 02:57:08;;;;;;;;;26.75;21.00;;;;;5.77;96.83;102475.19;5044760;28;45481;-66
2021/12/19 02:59:34;;;;;;;;;31.50;21.75;;;;;5.73;97.23;102465.56;5042322;28;45535;-66
2021/12/19 03:02:00;;;;;;;;;24.50;20.25;;;;;5.69;96.51;102469.00;5041791;28;45276;-66
2021/12/19 03:04:25;;;;;;;;;30.25;23.00;;;;;5.66;96.78;102451.59;5040429;28;45321;-66
2021/12/19 03:06:51;;;;;;;;;29.75;22.00;;;;;5.73;96.47;102462.09;5038990;28;45560;-66
2021/12/19 03:12:10;;;;;;;;;34.75;25.75;;;;;5.74;97.42;102453.41;5038767;28;45848;-65
2021/12/19 03:20:07;;;;;;;;;32.50;26.00;;;;;5.73;96.66;102442.06;5040723;28;45739;-65
2021/12/19 03:22:33;;;;;;;;;33.00;25.25;;;;;5.72;95.85;102442.91;5042683;28;45382;-64
2021/12/19 03:24:58;;;;;;;;;31.50;23.25;;;;;5.76;96.81;102446.47;5021393;28;45475;-67
2021/12/19 03:27:24;;;;;;;;;28.75;23.00;;;;;5.74;96.10;102445.56;5040120;28;45432;-66
2021/12/19 03:29:49;;;;;;;;;24.75;20.00;;;;;5.70;96.88;102444.66;5041615;28;45459;-64
2021/12/19 03:32:14;;;;;;;;;32.75;27.25;;;;;5.69;97.41;102443.78;5020633;28;45388;-64
2021/12/19 03:34:40;;;;;;;;;26.75;23.50;;;;;5.66;97.83;102441.13;5038947;28;45299;-65
2021/12/19 03:37:06;;;;;;;;;35.50;24.75;;;;;5.62;97.00;102441.09;5039252;28;45312;-65
2021/12/19 03:39:44;;;;;;;;;37.00;32.00;;;;;5.59;98.21;102443.66;5038747;28;46240;-65
2021/12/19 03:42:10;;;;;;;;;24.75;22.25;;;;;5.60;96.97;102442.78;5039375;28;45204;-68
2021/12/19 03:44:35;;;;;;;;;26.50;19.75;;;;;5.56;97.83;102444.53;5038696;28;45582;-67
2021/12/19 03:47:01;;;;;;;;;25.75;18.50;;;;;5.55;97.96;102448.00;5021072;28;45469;-62
2021/12/19 03:49:26;;;;;;;;;32.25;25.25;;;;;5.57;97.83;102454.09;5038296;28;45915;-66
2021/12/19 03:51:52;;;;;;;;;31.25;27.25;;;;;5.61;98.01;102452.38;5042231;28;45290;-67
2021/12/19 03:54:17;;;;;;;;;28.00;22.75;;;;;5.61;97.81;102448.06;5038525;28;45704;-64
2021/12/19 03:56:42;;;;;;;;;28.00;24.25;;;;;5.62;97.99;102448.91;5038754;28;45341;-66
2021/12/19 03:59:08;;;;;;;;;39.50;29.25;;;;;5.60;97.44;102448.03;5020151;28;46315;-66
2021/12/19 04:01:33;;;;;;;;;34.75;27.00;;;;;5.67;97.67;102445.50;5020323;28;45822;-65
2021/12/19 04:04:00;;;;;;;;;29.00;24.75;;;;;5.68;97.47;102448.97;5048190;28;45387;-65
2021/12/19 04:06:25;;;;;;;;;27.00;19.25;;;;;5.68;97.75;102449.88;5041926;28;45397;-66
2021/12/19 04:08:51;;;;;;;;;34.50;26.00;;;;;5.72;97.24;102449.91;5038676;28;46029;-67
2021/12/19 04:11:16;;;;;;;;;33.25;25.00;;;;;5.66;97.97;102445.47;5040550;28;45312;-64
2021/12/19 04:13:42;;;;;;;;;30.50;23.25;;;;;5.67;97.28;102442.00;5022155;28;45254;-66
2021/12/19 04:16:07;;;;;;;;;26.50;22.00;;;;;5.65;97.24;102442.00;5041540;28;45525;-67
2021/12/19 04:18:32;;;;;;;;;25.25;19.00;;;;;5.55;97.21;102424.50;5039110;28;45783;-67
2021/12/19 04:20:58;;;;;;;;;32.00;23.25;;;;;5.59;97.98;102439.34;5040329;28;45323;-65
2021/12/19 04:23:23;;;;;;;;;31.00;22.25;;;;;5.59;97.69;102436.72;5040188;28;45345;-66
2021/12/19 04:25:50;;;;;;;;;30.75;23.25;;;;;5.52;97.93;102430.53;5044836;28;45225;-65
2021/12/19 04:28:16;;;;;;;;;29.50;19.00;;;;;5.60;97.94;102445.41;5040994;28;45462;-64
2021/12/19 04:30:41;;;;;;;;;21.50;17.00;;;;;5.60;97.78;102435.84;5041510;28;45441;-66
2021/12/19 04:33:11;;;;;;;;;26.25;22.00;;;;;5.51;97.75;102422.72;5040332;28;45525;-67
2021/12/19 04:35:41;;;;;;;;;27.50;20.75;;;;;5.53;98.11;102427.06;5041422;28;45497;-66
2021/12/19 05:02:48;;;;;;;;;24.50;21.00;;;;;5.47;98.82;102400.06;5039682;28;45388;-65
2021/12/19 05:15:33;;;;;;;;;19.25;17.00;;;;;5.21;99.51;102372.81;5041663;28;45265;-66
2021/12/19 05:18:04;;;;;;;;;18.25;15.00;;;;;5.34;99.46;102405.13;5041464;28;45850;-66
2021/12/19 05:20:30;;;;;;;;;23.50;15.50;;;;;5.33;99.48;102397.28;5036824;28;46184;-66
2021/12/19 05:23:03;;;;;;;;;22.50;14.50;;;;;5.34;99.02;102394.69;5037058;28;45368;-68
2021/12/19 05:25:29;;;;;;;;;28.25;17.50;;;;;5.33;99.49;102402.50;5037162;28;45218;-67
2021/12/19 05:27:56;;;;;;;;;27.00;18.50;;;;;5.31;99.62;102399.88;5037042;28;45322;-65
2021/12/19 05:30:23;;;;;;;;;30.25;22.75;;;;;5.34;99.37;102401.63;5040231;28;46130;-65
2021/12/19 05:32:51;;;;;;;;;32.75;26.50;;;;;5.38;99.81;102398.19;5038309;28;45348;-68
2021/12/19 05:35:24;;;;;;;;;16.75;13.25;;;;;5.37;98.96;102399.94;5037316;28;45449;-70
2021/12/19 05:46:02;;;;;;;;;23.00;19.00;;;;;5.42;98.96;102394.75;5036859;28;45473;-66
2021/12/19 05:48:28;;;;;;;;;24.25;16.75;;;;;5.40;99.46;102393.88;5041575;28;45029;-66
2021/12/19 05:50:53;;;;;;;;;24.25;16.50;;;;;5.39;98.56;102387.78;5002167;28;45817;-66
2021/12/19 05:53:19;;;;;;;;;23.50;16.50;;;;;5.41;99.52;102386.06;5037180;28;45267;-69
2021/12/19 05:55:44;;;;;;;;;20.50;17.50;;;;;5.37;99.06;102380.78;5039038;28;45718;-68
2021/12/19 05:58:10;;;;;;;;;23.50;19.00;;;;;5.44;99.08;102397.41;5037887;28;45228;-66
2021/12/19 06:00:36;;;;;;;;;23.25;18.00;;;;;5.41;99.37;102400.84;5039794;28;45331;-67
2021/12/19 06:03:03;;;;;;;;;22.50;18.25;;;;;5.42;99.22;102394.75;5044120;28;45498;-66
2021/12/19 06:05:28;;;;;;;;;23.75;17.25;;;;;5.40;99.26;102386.94;5040009;28;45382;-68
2021/12/19 06:07:54;;;;;;;;;22.00;16.00;;;;;5.46;98.98;102386.09;5037094;28;45570;-66
2021/12/19 06:10:20;;;;;;;;;23.00;19.25;;;;;5.49;98.52;102388.75;5036337;28;45403;-65
2021/12/19 06:12:46;;;;;;;;;21.25;16.50;;;;;5.49;98.41;102383.53;5036339;28;45331;-66
2021/12/19 06:15:12;;;;;;;;;17.50;13.75;;;;;5.52;98.90;102385.31;5036027;28;45355;-66
2021/12/19 06:17:42;;;;;;;;;20.75;16.50;;;;;5.54;98.51;102388.81;5036936;28;45216;-64
2021/12/19 06:20:09;;;;;;;;;29.50;20.25;;;;;5.55;98.45;102385.34;5037787;28;46191;-66
2021/12/19 06:22:34;;;;;;;;;15.75;12.75;;;;;5.57;98.24;102388.84;5038341;28;45319;-66
2021/12/19 06:24:59;;;;;;;;;20.25;18.50;;;;;5.58;98.17;102385.38;5037297;28;45374;-67
2021/12/19 06:27:25;;;;;;;;;16.50;16.25;;;;;5.60;98.15;102377.53;5036759;28;45565;-66
2021/12/19 06:29:51;;;;;;;;;24.75;19.00;;;;;5.59;98.33;102383.63;5036903;28;46121;-66
2021/12/19 06:32:17;;;;;;;;;29.25;20.00;;;;;5.56;97.74;102379.25;5036540;28;45233;-65
2021/12/19 06:34:42;;;;;;;;;16.50;13.25;;;;;5.62;97.23;102378.41;5038837;28;45402;-67
2021/12/19 06:37:10;;;;;;;;;33.25;23.50;;;;;5.54;97.00;102375.75;5036078;28;45604;-67
2021/12/19 06:39:37;;;;;;;;;23.75;21.50;;;;;5.52;96.98;102380.09;5033844;28;48140;-65
2021/12/19 06:42:04;;;;;;;;;27.25;18.50;;;;;5.55;97.48;102382.72;5035727;28;45410;-66
2021/12/19 06:44:29;;;;;;;;;28.50;23.25;;;;;5.58;97.80;102382.75;5036080;28;45435;-66
2021/12/19 06:46:55;;;;;;;;;31.00;24.25;;;;;5.62;97.19;102378.41;5036962;28;45344;-66
2021/12/19 06:49:20;;;;;;;;;34.75;27.00;;;;;5.62;97.21;102368.88;5036751;28;46384;-66
2021/12/19 06:51:46;;;;;;;;;28.00;26.00;;;;;5.63;97.35;102382.78;5018305;28;45409;-66
2021/12/19 06:54:11;;;;;;;;;38.25;28.50;;;;;5.43;97.03;102344.31;5036068;28;45161;-63
2021/12/19 06:56:37;;;;;;;;;23.50;20.50;;;;;5.62;96.47;102375.81;5037065;28;45629;-66
2021/12/19 06:59:03;;;;;;;;;22.75;20.25;;;;;5.64;97.25;102384.53;5036065;28;46895;-67
2021/12/19 07:01:28;;;;;;;;;21.75;17.50;;;;;5.65;96.43;102379.34;5036797;28;45350;-65
2021/12/19 07:03:53;;;;;;;;;22.00;15.00;;;;;5.67;96.32;102379.34;5021884;28;45346;-66
2021/12/19 07:06:19;;;;;;;;;19.00;15.00;;;;;5.62;96.29;102392.38;5037659;28;45382;-67
2021/12/19 07:08:44;;;;;;;;;13.75;12.00;;;;;5.62;96.94;102386.25;5020424;28;46004;-62
2021/12/19 07:11:09;;;;;;;;;18.25;15.25;;;;;5.63;97.08;102388.00;5037503;28;45299;-66
2021/12/19 07:13:35;;;;;;;;;19.25;16.00;;;;;5.55;96.76;102377.50;5035875;28;45220;-65
2021/12/19 07:16:00;;;;;;;;;17.50;15.25;;;;;5.51;97.03;102381.81;5035898;28;45162;-65
2021/12/19 07:18:26;;;;;;;;;7.25;7.00;;;;;5.47;96.71;102373.94;5017241;28;47405;-69
2021/12/19 07:20:51;;;;;;;;;19.00;14.75;;;;;5.44;97.32;102379.13;5038308;28;45347;-68
2021/12/19 07:23:20;;;;;;;;;17.00;14.75;;;;;5.41;97.27;102379.97;5035820;28;45433;-68
2021/12/19 07:25:46;;;;;;;;;22.25;16.50;;;;;5.40;97.47;102384.31;5039535;28;45558;-68
2021/12/19 07:28:12;;;;;;;;;17.75;16.75;;;;;5.39;97.89;102374.75;5040922;28;46270;-67
2021/12/19 07:30:39;;;;;;;;;22.25;18.25;;;;;5.38;97.63;102377.31;5038969;28;45332;-69
2021/12/19 07:33:06;;;;;;;;;16.75;14.25;;;;;5.39;97.34;102376.47;5039111;28;45430;-66
2021/12/19 07:35:36;;;;;;;;;21.00;18.25;;;;;5.43;97.55;102375.63;5040062;28;45397;-69
2021/12/19 07:38:03;;;;;;;;;14.00;13.00;;;;;5.47;97.60;102363.50;5039777;28;45544;-67
2021/12/19 07:40:35;;;;;;;;;18.50;14.50;;;;;5.41;97.88;102354.75;5040105;28;45377;-67
2021/12/19 07:43:03;;;;;;;;;15.00;13.75;;;;;5.54;97.52;102368.78;5040292;28;45620;-66
2021/12/19 07:45:30;;;;;;;;;22.75;14.75;;;;;5.56;97.13;102368.81;5038679;28;45632;-68
2021/12/19 07:47:55;;;;;;;;;15.50;15.50;;;;;5.55;97.06;102370.53;5038981;28;47020;-68
2021/12/19 07:50:21;;;;;;;;;20.25;15.75;;;;;5.53;96.19;102374.00;5038351;28;45265;-65
2021/12/19 07:52:47;;;;;;;;;19.00;15.50;;;;;5.54;96.68;102365.31;5038678;28;45379;-67
2021/12/19 07:55:12;;;;;;;;;18.50;16.50;;;;;5.54;96.54;102368.78;5038759;28;45374;-67
2021/12/19 07:57:37;;;;;;;;;20.50;17.50;;;;;5.55;96.69;102369.69;5021209;28;48273;-67
2021/12/19 08:00:04;;;;;;;;;16.25;15.50;;;;;5.56;97.13;102377.50;5046931;28;45294;-70
2021/12/19 08:02:30;;;;;;;;;16.00;16.00;;;;;5.53;96.78;102374.00;5039572;28;45307;-67
2021/12/19 08:04:55;;;;;;;;;20.00;18.50;;;;;5.60;96.70;102367.97;5021425;28;45572;-67
2021/12/19 08:07:23;;;;;;;;;21.00;17.75;;;;;5.66;96.49;102375.88;5042015;28;45475;-64
2021/12/19 08:12:33;;;;;;;;;14.25;13.00;;;;;5.68;94.84;102379.38;5038367;28;45937;-69
2021/12/19 08:14:58;;;;;;;;;16.75;13.00;;;;;5.67;95.54;102382.84;5038383;28;45443;-62
2021/12/19 08:17:23;;;;;;;;;14.00;13.25;;;;;5.75;95.52;102377.66;5038294;28;46583;-63
2021/12/19 08:19:49;;;;;;;;;25.25;16.50;;;;;5.73;94.28;102378.53;5037855;28;45244;-61
2021/12/19 08:22:15;;;;;;;;;16.75;13.25;;;;;5.68;94.64;102371.53;5038006;28;45377;-67
2021/12/19 08:24:41;;;;;;;;;23.25;14.00;;;;;5.73;95.17;102378.53;5038141;28;45578;-68
2021/12/19 08:27:07;;;;;;;;;17.00;16.50;;;;;5.80;94.68;102383.81;5038033;28;46369;-66
2021/12/19 08:29:33;;;;;;;;;14.00;12.25;;;;;5.81;94.29;102382.09;5020158;28;45527;-63
2021/12/19 08:31:58;;;;;;;;;19.50;14.75;;;;;5.85;94.61;102369.09;5020178;28;45415;-67
2021/12/19 08:34:23;;;;;;;;;24.50;19.00;;;;;5.92;94.38;102374.34;5038165;28;45421;-62
2021/12/19 08:36:49;;;;;;;;;16.75;13.25;;;;;5.96;94.04;102366.53;5037401;28;45989;-65
2021/12/19 08:39:15;;;;;;;;;7.75;5.75;;;;;6.08;94.86;102367.53;5037796;28;45421;-59
2021/12/19 08:41:41;;;;;;;;;16.50;14.00;;;;;6.12;93.71;102377.13;5037569;28;45426;-63
2021/12/19 08:44:07;;;;;;;;;26.25;19.25;;;;;6.09;93.03;102377.13;5037315;28;45402;-65
2021/12/19 08:46:35;;;;;;;;;22.25;17.00;;;;;6.03;92.92;102382.28;5036906;28;45979;-65
2021/12/19 08:49:02;;;;;;;;;23.50;19.00;;;;;6.02;93.69;102372.72;5037513;28;45217;-64
2021/12/19 08:51:27;;;;;;;;;19.25;17.00;;;;;6.01;93.72;102369.22;5020590;28;45332;-66
2021/12/19 08:53:53;;;;;;;;;23.00;20.50;;;;;6.07;93.18;102379.72;5040730;28;45603;-67
2021/12/19 08:56:18;;;;;;;;;21.25;18.75;;;;;6.14;94.11;102381.53;5037873;28;45446;-66
2021/12/19 08:58:43;;;;;;;;;23.50;20.75;;;;;6.16;92.92;102371.06;5041812;28;45342;-67
2021/12/19 09:01:09;;;;;;;;;21.50;16.75;;;;;6.19;93.28;102376.31;5024181;28;45387;-65
2021/12/19 09:03:34;;;;;;;;;27.75;17.00;;;;;6.11;92.19;102380.63;5041848;28;45548;-66
2021/12/19 09:06:01;;;;;;;;;17.00;13.50;;;;;6.04;91.82;102381.44;5023421;28;46371;-63
2021/12/19 09:08:27;;;;;;;;;20.75;15.00;;;;;5.95;92.78;102380.47;5044459;28;45190;-66
2021/12/19 09:10:53;;;;;;;;;23.25;18.75;;;;;5.92;93.60;102377.81;5041714;28;45231;-64
2021/12/19 09:13:19;;;;;;;;;25.75;18.75;;;;;5.97;93.85;102372.66;5021262;28;45338;-67
2021/12/19 09:15:45;;;;;;;;;21.75;17.75;;;;;6.01;92.28;102387.53;5040196;28;45269;-61
2021/12/19 09:18:10;;;;;;;;;16.50;14.75;;;;;5.87;92.97;102370.84;5038743;28;45265;-68
2021/12/19 09:20:36;;;;;;;;;20.25;17.25;;;;;5.92;92.13;102385.66;5037923;28;45615;-67
2021/12/19 09:23:02;;;;;;;;;24.75;20.75;;;;;5.86;92.51;102383.00;5037811;28;45478;-66
2021/12/19 09:25:28;;;;;;;;;24.25;18.75;;;;;5.80;92.78;102381.19;5037870;28;46300;-68
2021/12/19 09:27:53;;;;;;;;;20.25;13.50;;;;;5.78;92.81;102376.84;5038044;28;45334;-69
2021/12/19 09:30:19;;;;;;;;;20.25;16.00;;;;;5.76;93.29;102378.56;5020255;28;45434;-69
2021/12/19 09:32:44;;;;;;;;;21.75;18.25;;;;;5.83;93.51;102375.13;5038560;28;45282;-64
2021/12/19 09:35:10;;;;;;;;;26.25;19.75;;;;;5.83;93.36;102362.09;5042142;28;45350;-64
2021/12/19 09:37:35;;;;;;;;;26.25;22.25;;;;;5.92;94.06;102376.97;5044397;28;45582;-65
2021/12/19 09:40:09;;;;;;;;;24.50;19.00;;;;;6.01;93.43;102374.47;5025486;28;45265;-69
2021/12/19 09:42:36;;;;;;;;;36.75;25.50;;;;;6.04;93.37;102382.31;5038835;28;45315;-72
2021/12/19 09:45:04;;;;;;;;;51.50;43.50;;;;;6.03;92.45;102385.78;5037214;28;46320;-61
2021/12/19 09:47:29;;;;;;;;;24.75;19.25;;;;;6.04;92.69;102376.19;5018219;28;45896;-69
2021/12/19 09:49:57;;;;;;;;;16.50;14.50;;;;;6.03;91.98;102382.28;5019138;28;45342;-69
2021/12/19 09:52:23;;;;;;;;;20.75;15.00;;;;;5.94;91.47;102383.94;5039058;28;45297;-66
2021/12/19 09:54:48;;;;;;;;;19.25;16.25;;;;;5.88;92.09;102383.03;5038912;28;45314;-68
2021/12/19 09:57:14;;;;;;;;;18.50;15.50;;;;;5.79;92.04;102378.59;5025307;28;45438;-65
2021/12/19 09:59:39;;;;;;;;;19.00;14.25;;;;;5.78;92.01;102364.63;5036927;28;45960;-65
2021/12/19 10:02:05;;;;;;;;;21.25;16.50;;;;;5.82;92.46;102362.94;5036908;28;45548;-62
2021/12/19 10:04:42;;;;;;;;;22.00;14.75;;;;;5.91;92.76;102364.78;5036808;28;46821;-64
2021/12/19 10:07:10;;;;;;;;;25.75;18.50;;;;;5.91;91.98;102352.56;5018548;28;45257;-66
2021/12/19 10:09:38;;;;;;;;;18.75;16.25;;;;;5.85;91.98;102350.81;5035965;28;45363;-64
2021/12/19 10:12:37;;;;;;;;;20.00;15.25;;;;;5.95;93.19;102356.94;5018245;28;45410;-62
2021/12/19 10:15:08;;;;;;;;;17.00;15.75;;;;;5.99;92.11;102344.81;5036092;28;45929;-65
2021/12/19 10:17:33;;;;;;;;;20.25;17.25;;;;;5.98;91.91;102350.91;5003498;28;45594;-63
2021/12/19 10:20:02;;;;;;;;;17.25;13.00;;;;;5.93;91.51;102342.16;5036476;28;45486;-68
2021/12/19 10:22:32;;;;;;;;;18.50;17.25;;;;;6.06;91.76;102348.34;5018430;28;45302;-67
2021/12/19 10:25:10;;;;;;;;;19.25;17.00;;;;;6.08;92.21;102339.69;5037474;28;46106;-64
2021/12/19 10:27:45;;;;;;;;;22.25;15.75;;;;;6.19;91.35;102344.94;5037060;28;45358;-65
2021/12/19 10:30:32;;;;;;;;;24.25;20.75;;;;;6.25;90.44;102338.91;5036572;28;45401;-66
2021/12/19 10:33:21;;;;;;;;;20.75;18.50;;;;;6.26;89.67;102338.91;5036647;28;45318;-69
2021/12/19 10:35:50;;;;;;;;;21.75;16.75;;;;;6.31;89.33;102338.94;5037448;28;45859;-63
2021/12/19 10:38:23;;;;;;;;;26.50;21.00;;;;;6.34;89.05;102335.47;5034500;28;45498;-62
2021/12/19 10:40:51;;;;;;;;;22.50;21.00;;;;;6.33;89.77;102337.22;5034575;28;45410;-64
2021/12/19 10:43:18;;;;;;;;;26.25;18.75;;;;;6.34;89.03;102333.72;5036016;28;45525;-64
2021/12/19 10:45:55;;;;;;;;;31.75;22.25;;;;;6.34;90.06;102338.06;5016661;28;48148;-65
2021/12/19 10:48:29;;;;;;;;;27.00;20.50;;;;;6.31;88.92;102332.81;5035257;28;45477;-63
2021/12/19 10:50:59;;;;;;;;;28.50;23.00;;;;;6.29;89.29;102336.31;5035563;28;45379;-64
2021/12/19 10:53:31;;;;;;;;;31.50;26.25;;;;;6.39;90.41;102323.31;5035710;28;45561;-67
2021/12/19 10:55:58;;;;;;;;;27.00;24.00;;;;;6.48;89.39;102328.59;5018203;28;46364;-63
2021/12/19 10:58:43;;;;;;;;;27.75;23.00;;;;;6.54;88.66;102328.63;5034363;28;45519;-66
2021/12/19 11:01:17;;;;;;;;;29.25;25.00;;;;;6.52;88.03;102335.59;5036658;28;45403;-64
2021/12/19 11:04:21;;;;;;;;;30.75;23.75;;;;;6.58;88.31;102319.03;5019392;28;45410;-68
2021/12/19 11:06:54;;;;;;;;;28.75;18.75;;;;;6.68;88.03;102312.97;5032959;28;46281;-66
2021/12/19 11:09:26;;;;;;;;;24.00;19.50;;;;;6.75;87.89;102310.38;5037098;28;45262;-66
2021/12/19 11:11:58;;;;;;;;;21.00;16.75;;;;;6.65;84.85;102318.19;5037458;28;45241;-68
2021/12/19 11:14:33;;;;;;;;;20.25;18.00;;;;;6.58;85.48;102314.69;5039609;28;45359;-67
2021/12/19 11:17:11;;;;;;;;;25.50;19.00;;;;;6.51;85.90;102306.81;5039548;28;47178;-69
2021/12/19 11:19:38;;;;;;;;;33.00;22.00;;;;;6.45;85.90;102306.78;5021739;28;45749;-68
2021/12/19 11:22:05;;;;;;;;;22.25;20.50;;;;;6.41;86.39;102301.53;5040053;28;45229;-68
2021/12/19 11:24:32;;;;;;;;;23.00;19.25;;;;;6.40;87.40;102293.69;5040894;28;45606;-72
2021/12/19 11:27:00;;;;;;;;;20.75;17.00;;;;;6.48;86.40;102280.66;5040662;28;45344;-70
2021/12/19 11:29:27;;;;;;;;;23.25;18.75;;;;;6.49;85.58;102279.78;5041696;28;45816;-65
2021/12/19 11:31:59;;;;;;;;;29.75;25.25;;;;;6.49;85.78;102285.00;5040486;28;45868;-61
2021/12/19 11:34:24;;;;;;;;;28.00;25.00;;;;;6.55;86.99;102285.03;5039391;28;45311;-61
2021/12/19 11:36:59;;;;;;;;;34.00;24.50;;;;;6.57;86.08;102270.22;5039015;28;45424;-65
2021/12/19 11:39:31;;;;;;;;;26.50;24.75;;;;;6.65;86.62;102272.88;5038907;28;45331;-66
2021/12/19 11:42:02;;;;;;;;;36.50;32.25;;;;;6.82;87.37;102279.03;5038861;28;45482;-63
2021/12/19 11:44:58;;;;;;;;;32.75;24.25;;;;;7.00;86.35;102270.38;5040199;28;45220;-61
2021/12/19 11:47:36;;;;;;;;;27.00;26.00;;;;;7.13;86.29;102259.91;5022391;28;48730;-62
2021/12/19 11:50:23;;;;;;;;;52.00;37.75;;;;;7.16;85.18;102252.94;5040158;28;45426;-61
2021/12/19 11:52:51;;;;;;;;;34.50;26.00;;;;;7.12;84.83;102245.94;5042075;28;45307;-69
2021/12/19 11:55:22;;;;;;;;;24.25;22.75;;;;;7.08;85.02;102246.81;5041890;28;45410;-66
2021/12/19 11:58:11;;;;;;;;;26.25;22.00;;;;;7.13;84.86;102252.94;5042443;28;45395;-65
2021/12/19 12:01:06;;;;;;;;;27.25;22.50;;;;;7.15;84.27;102238.09;5043478;28;45232;-62
2021/12/19 12:03:40;;;;;;;;;27.25;23.25;;;;;7.11;84.67;102244.19;5043051;28;45320;-60
2021/12/19 12:06:15;;;;;;;;;28.25;24.00;;;;;7.15;84.93;102227.63;5041197;28;45373;-61
2021/12/19 12:09:16;;;;;;;;;27.25;23.25;;;;;7.09;85.41;102232.84;5039161;28;46118;-62
2021/12/19 12:12:00;;;;;;;;;35.25;29.25;;;;;7.05;85.26;102225.03;5038704;28;45473;-68
2021/12/19 12:14:38;;;;;;;;;33.25;26.75;;;;;7.05;85.75;102228.50;5039992;28;45372;-60
2021/12/19 12:17:10;;;;;;;;;29.00;26.00;;;;;7.11;85.53;102223.25;5044594;28;45269;-64
2021/12/19 12:19:38;;;;;;;;;33.50;28.75;;;;;7.23;85.57;102216.28;5042721;28;46324;-65
2021/12/19 12:25:18;;;;;;;;;23.75;20.75;;;;;7.38;85.49;102199.72;5038557;28;45358;-64
2021/12/19 12:28:03;;;;;;;;;37.75;31.00;;;;;7.50;85.13;102196.22;5039613;28;45363;-58
2021/12/19 12:30:35;;;;;;;;;28.00;24.50;;;;;7.53;84.57;102198.84;5040048;28;45525;-63
2021/12/19 12:33:02;;;;;;;;;20.50;18.25;;;;;7.43;82.95;102196.22;5022038;28;45961;-55